Time;durP1;ratioP1;P1;durP2;ratioP2;P2;SDS_P1;SDS_P2;PMS_P1;PMS_P2;Temp;Humidity;BMP_temperature;BMP_pressure;BME280_temperature;BME280_humidity;BME280_pressure;Samples;Min_cycle;Max_cycle;Signal;HPM_P1;HPM_P2
2022/01/09 00:00:15;;;;;;;11.82;6.07;;;;;;;6.30;96.28;98800.03;5096330;28;20074;-67
2022/01/09 00:02:40;;;;;;;12.65;5.55;;;;;;;6.22;96.63;98795.94;5096288;28;20034;-66
2022/01/09 00:05:06;;;;;;;13.63;5.57;;;;;;;6.32;96.93;98814.22;5077992;28;20020;-67
2022/01/09 00:07:32;;;;;;;19.80;6.45;;;;;;;6.41;96.86;98819.88;5096126;28;20024;-68
2022/01/09 00:09:57;;;;;;;13.85;3.95;;;;;;;6.28;97.46;98828.47;5096127;28;20027;-67
2022/01/09 00:12:23;;;;;;;15.40;2.63;;;;;;;6.25;96.02;98816.06;5078352;28;20466;-67
2022/01/09 00:14:49;;;;;;;12.60;2.42;;;;;;;6.31;95.32;98834.97;5096109;28;20125;-67
2022/01/09 00:17:15;;;;;;;9.82;1.77;;;;;;;6.27;95.75;98833.78;5095665;28;20544;-66
2022/01/09 00:19:40;;;;;;;9.95;1.98;;;;;;;6.25;95.44;98834.00;5096458;28;20028;-67
2022/01/09 00:22:06;;;;;;;15.80;3.15;;;;;;;6.19;96.12;98839.97;5096485;28;20020;-67
2022/01/09 00:24:31;;;;;;;19.02;3.17;;;;;;;6.27;95.78;98851.75;5077749;28;20122;-67
2022/01/09 00:26:56;;;;;;;25.33;4.03;;;;;;;6.27;96.09;98854.31;5095795;28;20489;-67
2022/01/09 00:29:22;;;;;;;20.85;3.20;;;;;;;6.34;95.81;98867.91;5095856;28;20016;-66
2022/01/09 00:31:47;;;;;;;22.63;3.50;;;;;;;6.39;95.18;98874.97;5096004;28;20024;-67
2022/01/09 00:34:12;;;;;;;23.20;4.13;;;;;;;6.34;95.51;98873.03;5095745;28;20382;-67
2022/01/09 00:36:38;;;;;;;19.85;2.97;;;;;;;6.27;95.71;98873.06;5077513;28;20046;-67
2022/01/09 00:39:03;;;;;;;26.25;4.18;;;;;;;6.27;95.47;98885.91;5095607;28;20027;-66
2022/01/09 00:41:28;;;;;;;30.98;3.85;;;;;;;6.20;95.69;98872.31;5077376;28;20031;-67
2022/01/09 00:43:54;;;;;;;30.25;4.88;;;;;;;6.21;95.68;98871.31;5095754;28;20081;-66
2022/01/09 00:46:19;;;;;;;30.73;3.97;;;;;;;6.21;95.79;98873.09;5095452;28;20490;-67
2022/01/09 00:48:44;;;;;;;28.35;4.10;;;;;;;6.25;96.59;98885.31;5094690;28;20081;-67
2022/01/09 00:51:09;;;;;;;42.45;4.35;;;;;;;6.29;95.68;98896.72;5095350;28;20141;-67
2022/01/09 00:53:35;;;;;;;32.25;4.25;;;;;;;6.34;95.64;98893.56;5095256;28;20027;-66
2022/01/09 00:56:00;;;;;;;33.65;4.20;;;;;;;6.33;95.46;98894.56;5095370;28;20039;-68
2022/01/09 00:58:25;;;;;;;41.30;5.22;;;;;;;6.32;95.71;98901.44;5095158;28;20073;-66
2022/01/09 01:00:51;;;;;;;36.88;5.07;;;;;;;6.37;95.17;98900.84;5077006;28;20020;-67
2022/01/09 01:03:16;;;;;;;46.50;5.03;;;;;;;6.31;94.88;98907.56;5077044;28;20531;-67
2022/01/09 01:05:41;;;;;;;32.65;4.00;;;;;;;6.31;94.21;98909.34;5076950;28;20119;-65
2022/01/09 01:08:07;;;;;;;31.38;3.92;;;;;;;6.36;94.58;98908.72;5095019;28;20073;-66
2022/01/09 01:10:32;;;;;;;34.92;4.32;;;;;;;6.39;94.50;98919.38;5094936;28;20020;-66
2022/01/09 01:12:57;;;;;;;27.27;3.88;;;;;;;6.42;93.34;98939.50;5095166;28;20055;-66
2022/01/09 01:15:22;;;;;;;25.88;4.18;;;;;;;6.51;93.59;98928.00;5095500;28;20075;-67
2022/01/09 01:17:48;;;;;;;35.47;4.50;;;;;;;6.42;93.84;98933.59;5094693;28;20024;-67
2022/01/09 01:20:14;;;;;;;27.83;4.50;;;;;;;6.32;94.07;98947.63;5095041;28;20075;-65
2022/01/09 01:22:40;;;;;;;38.72;4.53;;;;;;;6.38;93.95;98958.06;5094722;28;20043;-67
2022/01/09 01:25:06;;;;;;;26.27;3.67;;;;;;;6.36;93.18;98958.28;5076511;28;20031;-67
2022/01/09 01:27:32;;;;;;;28.63;3.90;;;;;;;6.35;92.99;98963.59;5076505;28;20107;-66
2022/01/09 01:29:58;;;;;;;34.10;4.75;;;;;;;6.35;93.62;98966.16;5076497;28;20486;-66
2022/01/09 01:32:24;;;;;;;41.17;4.18;;;;;;;6.24;92.20;98977.84;5094545;28;20016;-66
2022/01/09 01:34:49;;;;;;;35.85;4.38;;;;;;;6.35;91.97;98979.00;5076707;28;20023;-67
2022/01/09 01:37:14;;;;;;;28.08;4.07;;;;;;;6.26;91.88;98984.34;5094320;28;20072;-67
2022/01/09 01:39:40;;;;;;;39.00;4.20;;;;;;;6.26;92.00;98989.47;5094389;28;20102;-67
2022/01/09 01:42:05;;;;;;;30.13;4.03;;;;;;;6.15;92.04;98990.09;5076223;28;20020;-66
2022/01/09 01:44:45;;;;;;;25.25;3.95;;;;;;;6.29;91.81;99006.25;5094432;28;20032;-66
2022/01/09 01:47:10;;;;;;;29.50;3.85;;;;;;;6.27;92.14;99018.47;5094873;28;20015;-66
2022/01/09 01:49:36;;;;;;;27.88;4.38;;;;;;;6.25;93.10;99016.13;5076047;28;20023;-66
2022/01/09 01:52:02;;;;;;;33.53;4.55;;;;;;;6.29;91.99;99029.34;5094171;28;20024;-65
2022/01/09 01:54:27;;;;;;;28.88;4.40;;;;;;;6.25;91.98;99041.00;5094328;28;20028;-67
2022/01/09 01:56:53;;;;;;;26.33;4.43;;;;;;;6.30;91.51;99043.72;5093934;28;20046;-66
2022/01/09 01:59:19;;;;;;;31.52;4.30;;;;;;;6.24;91.15;99047.09;5093193;28;20102;-66
2022/01/09 02:01:44;;;;;;;23.98;4.03;;;;;;;6.35;91.75;99043.91;5094023;28;20382;-67
2022/01/09 02:04:09;;;;;;;25.95;3.72;;;;;;;6.29;92.00;99053.22;5075822;28;20517;-66
2022/01/09 02:06:35;;;;;;;31.88;3.88;;;;;;;6.30;91.94;99054.81;5093969;28;20081;-66
2022/01/09 02:09:04;;;;;;;33.70;4.00;;;;;;;6.35;90.78;99054.19;5075811;28;20118;-66
2022/01/09 02:11:29;;;;;;;31.27;5.15;;;;;;;6.16;90.56;99024.22;5075789;28;20050;-66
2022/01/09 02:13:55;;;;;;;23.55;3.38;;;;;;;6.10;90.96;99029.19;5093689;28;20020;-66
2022/01/09 02:16:21;;;;;;;31.60;5.45;;;;;;;6.32;91.53;99080.25;5093970;28;20028;-68
2022/01/09 02:18:47;;;;;;;30.40;3.60;;;;;;;6.28;89.65;99079.88;5075677;28;20078;-68
2022/01/09 02:21:14;;;;;;;33.08;3.80;;;;;;;6.19;91.05;99090.53;5093730;28;20382;-66
2022/01/09 02:23:44;;;;;;;27.23;4.53;;;;;;;6.29;91.25;99090.91;5093730;28;20020;-66
2022/01/09 02:26:10;;;;;;;21.52;3.75;;;;;;;6.26;90.33;99096.44;5075612;28;20028;-67
2022/01/09 02:28:35;;;;;;;22.95;3.25;;;;;;;6.23;90.07;99097.63;5093633;28;20426;-67
2022/01/09 02:31:00;;;;;;;26.95;4.25;;;;;;;6.25;90.41;99108.47;5093598;28;20046;-66
2022/01/09 02:33:25;;;;;;;30.77;3.70;;;;;;;6.24;90.14;99100.97;5075439;28;20016;-66
2022/01/09 02:35:52;;;;;;;24.98;3.83;;;;;;;6.30;90.82;99120.69;5093651;28;20063;-66
2022/01/09 02:38:18;;;;;;;19.90;3.70;;;;;;;6.27;90.12;99121.09;5075418;28;20020;-67
2022/01/09 02:40:43;;;;;;;28.98;3.33;;;;;;;6.24;89.78;99121.50;5093679;28;20101;-66
2022/01/09 02:43:08;;;;;;;22.25;3.80;;;;;;;6.26;90.54;99128.00;5093437;28;20028;-67
2022/01/09 02:45:34;;;;;;;24.55;3.13;;;;;;;6.28;90.83;99132.94;5075375;28;20071;-67
2022/01/09 02:48:02;;;;;;;28.25;3.58;;;;;;;6.32;89.79;99141.81;5075350;28;20145;-66
2022/01/09 02:50:38;;;;;;;24.15;3.88;;;;;;;6.39;90.18;99152.88;5093415;28;20054;-66
2022/01/09 02:53:16;;;;;;;24.55;3.50;;;;;;;6.27;89.99;99160.38;5075253;28;20382;-66
2022/01/09 02:55:49;;;;;;;23.95;3.50;;;;;;;6.30;89.10;99162.56;5093454;28;20075;-66
2022/01/09 02:58:15;;;;;;;31.40;3.80;;;;;;;6.33;89.30;99153.69;5075044;28;20056;-66
2022/01/09 03:00:43;;;;;;;28.80;3.85;;;;;;;6.27;89.53;99170.66;5093210;28;20067;-67
2022/01/09 03:03:09;;;;;;;28.15;3.83;;;;;;;6.22;88.85;99161.97;5093360;28;20027;-67
2022/01/09 03:05:34;;;;;;;24.25;4.05;;;;;;;6.31;88.86;99189.78;5075155;28;20437;-67
2022/01/09 03:08:00;;;;;;;31.02;4.53;;;;;;;6.20;90.63;99190.38;5093406;28;20032;-67
2022/01/09 03:10:26;;;;;;;23.60;3.95;;;;;;;6.18;90.34;99188.97;5076137;28;20123;-67
2022/01/09 03:12:52;;;;;;;27.90;3.45;;;;;;;6.23;90.97;99191.75;5079174;28;20490;-67
2022/01/09 03:15:18;;;;;;;22.88;4.35;;;;;;;6.07;90.89;99203.16;5097764;28;20512;-66
2022/01/09 03:17:44;;;;;;;26.98;3.63;;;;;;;6.02;90.87;99201.22;5097093;28;20031;-66
2022/01/09 03:20:16;;;;;;;21.05;3.55;;;;;;;6.12;91.02;99215.41;5097085;28;20077;-66
2022/01/09 03:22:42;;;;;;;34.13;4.15;;;;;;;6.04;89.87;99224.09;5097061;28;20046;-66
2022/01/09 03:25:09;;;;;;;24.65;3.20;;;;;;;5.99;90.21;99223.91;5078855;28;20413;-66
2022/01/09 03:27:36;;;;;;;18.92;2.90;;;;;;;6.01;89.39;99230.41;5097051;28;20045;-66
2022/01/09 03:30:03;;;;;;;21.38;2.92;;;;;;;6.01;88.61;99232.16;5097043;28;20573;-66
2022/01/09 03:32:29;;;;;;;25.92;3.70;;;;;;;5.93;88.83;99242.56;5097390;28;20020;-66
2022/01/09 03:34:54;;;;;;;16.38;2.50;;;;;;;5.83;88.67;99240.38;5097100;28;20024;-66
2022/01/09 03:37:19;;;;;;;23.48;3.22;;;;;;;5.96;87.37;99244.81;5097176;28;20028;-65
2022/01/09 03:39:45;;;;;;;18.63;2.50;;;;;;;5.74;88.15;99210.78;5097396;28;20359;-66
2022/01/09 03:42:10;;;;;;;23.73;3.42;;;;;;;5.82;88.79;99252.41;5078958;28;20082;-66
2022/01/09 03:44:35;;;;;;;13.77;2.38;;;;;;;5.83;89.26;99256.56;5079775;28;20111;-67
2022/01/09 03:47:01;;;;;;;17.73;2.75;;;;;;;5.92;88.25;99256.38;5080790;28;20059;-67
2022/01/09 03:49:26;;;;;;;19.08;2.92;;;;;;;5.85;88.14;99264.06;5104883;28;20035;-69
2022/01/09 03:51:53;;;;;;;14.77;2.50;;;;;;;5.88;88.39;99258.56;5106019;28;20467;-68
2022/01/09 03:54:23;;;;;;;12.23;2.50;;;;;;;5.59;86.95;99241.69;5107181;28;20024;-70
2022/01/09 03:56:51;;;;;;;25.92;3.15;;;;;;;5.91;87.67;99272.75;5107318;28;20040;-69
2022/01/09 03:59:18;;;;;;;20.75;3.10;;;;;;;5.83;87.84;99281.41;5089415;28;20024;-69
2022/01/09 04:01:44;;;;;;;18.25;2.47;;;;;;;5.79;86.49;99285.34;5089360;28;20027;-69
2022/01/09 04:04:10;;;;;;;19.80;3.03;;;;;;;5.79;86.48;99295.59;5107331;28;20043;-68
2022/01/09 04:06:39;;;;;;;22.77;2.45;;;;;;;5.81;87.39;99301.31;5104379;28;20024;-67
2022/01/09 04:09:08;;;;;;;30.83;3.45;;;;;;;5.81;88.82;99306.44;5098252;28;20047;-66
2022/01/09 04:11:38;;;;;;;15.70;2.40;;;;;;;5.78;87.95;99309.38;5097946;28;20497;-66
2022/01/09 04:14:03;;;;;;;15.82;2.90;;;;;;;5.84;86.60;99308.59;5079872;28;20016;-68
2022/01/09 04:16:29;;;;;;;22.55;2.65;;;;;;;5.74;87.25;99308.19;5097562;28;20074;-67
2022/01/09 04:18:54;;;;;;;18.98;2.67;;;;;;;5.84;86.87;99313.75;5079103;28;20027;-67
2022/01/09 04:21:20;;;;;;;22.00;3.10;;;;;;;5.72;87.53;99323.75;5096706;28;20028;-66
2022/01/09 04:23:45;;;;;;;15.80;2.53;;;;;;;5.68;88.83;99330.25;5077977;28;20123;-66
2022/01/09 04:26:11;;;;;;;22.05;3.20;;;;;;;5.65;88.49;99340.88;5096555;28;20034;-66
2022/01/09 04:28:36;;;;;;;19.23;2.83;;;;;;;5.63;88.23;99342.84;5096217;28;20052;-66
2022/01/09 04:31:01;;;;;;;20.77;2.78;;;;;;;5.71;88.91;99347.81;5096132;28;20378;-67
2022/01/09 04:33:27;;;;;;;19.95;3.13;;;;;;;5.77;87.82;99359.88;5095974;28;20016;-66
2022/01/09 04:35:52;;;;;;;20.05;3.13;;;;;;;5.69;87.97;99352.31;5095991;28;20016;-67
2022/01/09 04:38:17;;;;;;;23.00;3.17;;;;;;;5.75;86.63;99364.38;5095796;28;20032;-66
2022/01/09 04:40:43;;;;;;;22.10;3.30;;;;;;;5.79;86.53;99360.47;5077509;28;20093;-66
2022/01/09 04:43:10;;;;;;;18.55;2.85;;;;;;;5.69;86.82;99359.22;5095528;28;20116;-66
2022/01/09 04:45:35;;;;;;;18.90;2.72;;;;;;;5.53;87.84;99368.03;5077414;28;20352;-67
2022/01/09 04:48:05;;;;;;;16.58;3.05;;;;;;;5.47;87.80;99367.00;5095445;28;20103;-66
2022/01/09 04:50:35;;;;;;;15.85;2.95;;;;;;;5.60;86.46;99382.44;5077543;28;20386;-67
2022/01/09 04:53:05;;;;;;;17.73;3.17;;;;;;;5.54;86.95;99390.09;5095501;28;20032;-67
2022/01/09 04:55:36;;;;;;;21.90;2.38;;;;;;;5.49;86.14;99387.31;5095167;28;20048;-66
2022/01/09 04:58:03;;;;;;;21.52;2.92;;;;;;;5.54;86.07;99398.56;5077086;28;20490;-66
2022/01/09 05:00:28;;;;;;;15.57;2.85;;;;;;;5.51;86.06;99390.47;5095262;28;20052;-66
2022/01/09 05:02:53;;;;;;;16.50;3.20;;;;;;;5.56;86.04;99409.44;5095207;28;20378;-66
2022/01/09 05:05:19;;;;;;;20.13;2.97;;;;;;;5.42;85.31;99394.94;5095057;28;20031;-66
2022/01/09 05:07:45;;;;;;;13.07;2.53;;;;;;;5.48;86.83;99404.44;5095039;28;20073;-66
2022/01/09 05:10:11;;;;;;;17.95;2.95;;;;;;;5.50;87.56;99415.31;5094930;28;20024;-66
2022/01/09 05:12:36;;;;;;;24.70;3.38;;;;;;;5.55;85.75;99430.94;5095188;28;20035;-66
2022/01/09 05:15:04;;;;;;;20.30;3.13;;;;;;;5.44;87.21;99423.75;5094901;28;20019;-66
2022/01/09 05:17:29;;;;;;;12.68;3.10;;;;;;;5.48;87.00;99427.50;5094843;28;20363;-66
2022/01/09 05:19:57;;;;;;;20.02;3.03;;;;;;;5.54;86.47;99446.47;5076509;28;20020;-66
2022/01/09 05:22:24;;;;;;;16.13;2.40;;;;;;;5.61;84.96;99455.00;5094712;28;20035;-67
2022/01/09 05:24:50;;;;;;;23.27;2.70;;;;;;;5.61;86.71;99455.81;5076557;28;20388;-66
2022/01/09 05:27:17;;;;;;;18.80;2.85;;;;;;;5.58;85.88;99450.25;5094684;28;20459;-65
2022/01/09 05:29:42;;;;;;;19.33;2.75;;;;;;;5.64;85.28;99452.09;5094662;28;20028;-66
2022/01/09 05:32:08;;;;;;;24.48;3.42;;;;;;;5.62;86.10;99456.59;5076389;28;20027;-66
2022/01/09 05:34:33;;;;;;;25.02;3.22;;;;;;;5.41;87.24;99463.34;5094547;28;20423;-66
2022/01/09 05:36:59;;;;;;;16.50;2.92;;;;;;;5.42;86.84;99477.72;5076240;28;20062;-66
2022/01/09 05:39:24;;;;;;;17.38;2.88;;;;;;;5.46;86.18;99470.47;5094731;28;20107;-66
2022/01/09 05:41:50;;;;;;;23.08;3.67;;;;;;;5.48;86.63;99472.84;5076272;28;20378;-66
2022/01/09 05:44:18;;;;;;;20.63;3.78;;;;;;;5.43;86.59;99476.75;5076223;28;20020;-66
2022/01/09 05:46:43;;;;;;;16.85;2.63;;;;;;;5.40;86.30;99484.00;5076232;28;20470;-65
2022/01/09 05:49:08;;;;;;;22.05;3.08;;;;;;;5.52;87.01;99492.00;5094249;28;20093;-66
2022/01/09 05:51:34;;;;;;;18.08;3.30;;;;;;;5.39;87.17;99495.25;5094213;28;20545;-66
2022/01/09 05:53:59;;;;;;;17.40;2.42;;;;;;;5.43;88.28;99494.69;5094284;28;20111;-67
2022/01/09 05:56:24;;;;;;;18.17;2.85;;;;;;;5.40;86.97;99500.16;5094018;28;20402;-67
2022/01/09 05:58:49;;;;;;;18.05;2.70;;;;;;;5.39;88.05;99508.84;5075911;28;20060;-66
2022/01/09 06:01:15;;;;;;;13.35;2.35;;;;;;;5.37;88.44;99510.00;5094136;28;20103;-66
2022/01/09 06:03:40;;;;;;;22.35;2.60;;;;;;;5.45;87.99;99521.91;5094008;28;20035;-66
2022/01/09 06:06:06;;;;;;;15.13;2.55;;;;;;;5.25;87.66;99503.78;5094215;28;20035;-66
2022/01/09 06:08:31;;;;;;;23.30;3.30;;;;;;;5.37;88.10;99528.72;5094184;28;20020;-66
2022/01/09 06:10:56;;;;;;;15.13;2.88;;;;;;;5.38;87.64;99532.06;5093914;28;20493;-66
2022/01/09 06:13:22;;;;;;;15.13;2.53;;;;;;;5.32;87.98;99527.69;5093912;28;20492;-66
2022/01/09 06:15:47;;;;;;;16.48;2.65;;;;;;;5.25;88.38;99537.88;5075649;28;20024;-66
2022/01/09 06:18:12;;;;;;;13.25;2.25;;;;;;;5.16;89.31;99536.41;5075530;28;20028;-66
2022/01/09 06:20:39;;;;;;;13.90;2.60;;;;;;;5.12;87.73;99551.34;5093799;28;20024;-67
2022/01/09 06:23:05;;;;;;;14.65;2.72;;;;;;;5.04;88.88;99543.78;5093804;28;20390;-65
2022/01/09 06:25:30;;;;;;;12.55;2.50;;;;;;;5.03;89.42;99565.22;5093643;28;20107;-66
2022/01/09 06:27:55;;;;;;;20.55;2.67;;;;;;;5.10;89.54;99563.53;5093690;28;20020;-67
2022/01/09 06:30:21;;;;;;;20.27;3.20;;;;;;;5.19;89.04;99557.31;5093577;28;20099;-66
2022/01/09 06:32:46;;;;;;;16.77;2.78;;;;;;;5.19;89.75;99575.25;5075498;28;20020;-65
2022/01/09 06:35:12;;;;;;;11.57;2.28;;;;;;;5.21;89.79;99582.78;5094037;28;20028;-67
2022/01/09 06:37:37;;;;;;;10.45;2.30;;;;;;;4.94;89.78;99590.13;5093502;28;20023;-66
2022/01/09 06:40:04;;;;;;;11.65;2.58;;;;;;;4.91;90.98;99593.06;5075628;28;20111;-66
2022/01/09 06:42:29;;;;;;;7.47;2.17;;;;;;;4.73;90.74;99600.31;5093798;28;20073;-67
2022/01/09 06:44:54;;;;;;;13.60;2.08;;;;;;;4.68;90.31;99593.16;5076607;28;20016;-67
2022/01/09 06:47:20;;;;;;;9.20;1.95;;;;;;;4.38;90.79;99561.69;5082063;28;20504;-68
2022/01/09 06:49:46;;;;;;;10.35;1.77;;;;;;;4.58;89.71;99604.66;5100749;28;20020;-67
2022/01/09 06:52:11;;;;;;;10.45;2.00;;;;;;;4.63;91.65;99607.44;5102630;28;20512;-68
2022/01/09 06:54:36;;;;;;;12.73;2.00;;;;;;;4.60;91.73;99611.16;5100616;28;20035;-66
2022/01/09 06:57:02;;;;;;;7.53;2.05;;;;;;;4.76;91.05;99607.63;5099902;28;20043;-67
2022/01/09 06:59:27;;;;;;;7.47;2.20;;;;;;;4.79;90.25;99612.41;5081979;28;20039;-68
2022/01/09 07:01:52;;;;;;;12.73;2.28;;;;;;;4.88;90.49;99628.47;5100109;28;20102;-67
2022/01/09 07:04:18;;;;;;;12.73;2.13;;;;;;;4.82;91.56;99640.19;5100053;28;20020;-67
2022/01/09 07:06:43;;;;;;;14.63;2.42;;;;;;;4.80;91.54;99649.03;5081841;28;20108;-66
2022/01/09 07:09:08;;;;;;;13.57;2.20;;;;;;;4.79;91.27;99661.03;5100061;28;20074;-66
2022/01/09 07:11:34;;;;;;;9.82;1.90;;;;;;;4.58;91.66;99666.84;5099980;28;20020;-66
2022/01/09 07:13:59;;;;;;;8.05;1.77;;;;;;;4.42;91.92;99654.22;5099939;28;20055;-67
2022/01/09 07:16:25;;;;;;;8.07;1.50;;;;;;;4.35;91.11;99651.56;5081902;28;20115;-67
2022/01/09 07:18:50;;;;;;;5.78;1.90;;;;;;;4.13;91.43;99616.59;5099891;28;20027;-67
2022/01/09 07:21:15;;;;;;;8.45;1.60;;;;;;;4.29;92.10;99637.69;5081755;28;20031;-67
2022/01/09 07:23:41;;;;;;;8.40;2.15;;;;;;;4.34;91.25;99649.94;5100125;28;20024;-67
2022/01/09 07:26:06;;;;;;;8.43;1.73;;;;;;;4.39;91.01;99659.66;5081915;28;20058;-67
2022/01/09 07:28:32;;;;;;;11.32;2.40;;;;;;;4.33;92.26;99661.16;5081680;28;20485;-65
2022/01/09 07:30:58;;;;;;;11.02;1.85;;;;;;;4.44;91.37;99662.50;5100073;28;20054;-65
2022/01/09 07:33:23;;;;;;;14.88;2.00;;;;;;;4.49;91.43;99662.78;5081572;28;20032;-66
2022/01/09 07:35:49;;;;;;;12.85;2.38;;;;;;;4.47;90.83;99682.63;5099696;28;20110;-67
2022/01/09 07:38:14;;;;;;;11.68;2.28;;;;;;;4.55;90.47;99676.66;5099933;28;20042;-66
2022/01/09 07:40:39;;;;;;;10.35;2.25;;;;;;;4.42;90.97;99685.69;5099734;28;20086;-66
2022/01/09 07:43:04;;;;;;;9.57;2.00;;;;;;;4.38;90.74;99684.47;5099944;28;20051;-66
2022/01/09 07:45:30;;;;;;;7.82;1.70;;;;;;;4.38;89.61;99683.66;5100203;28;20043;-66
2022/01/09 07:47:58;;;;;;;11.10;1.95;;;;;;;4.34;90.11;99703.66;5100430;28;20027;-66
2022/01/09 07:50:24;;;;;;;10.40;1.90;;;;;;;4.32;90.55;99707.38;5098040;28;20024;-66
2022/01/09 07:52:50;;;;;;;11.73;2.00;;;;;;;4.27;89.97;99702.78;5098033;28;20047;-67
2022/01/09 07:55:18;;;;;;;14.15;2.58;;;;;;;4.25;90.92;99705.50;5079637;28;20028;-66
2022/01/09 07:57:44;;;;;;;8.20;1.67;;;;;;;4.29;90.65;99706.75;5097429;28;20036;-66
2022/01/09 08:00:10;;;;;;;14.13;2.17;;;;;;;4.21;91.14;99718.81;5096116;28;20431;-66
2022/01/09 08:02:36;;;;;;;9.55;1.80;;;;;;;4.24;90.30;99721.81;5097371;28;20056;-66
2022/01/09 08:05:01;;;;;;;11.63;2.05;;;;;;;4.24;91.29;99718.47;5096559;28;20027;-66
2022/01/09 08:07:26;;;;;;;10.23;2.17;;;;;;;4.23;90.65;99725.34;5078125;28;20027;-67
2022/01/09 08:09:52;;;;;;;9.63;1.92;;;;;;;4.33;90.78;99732.00;5096235;28;20529;-66
2022/01/09 08:12:17;;;;;;;12.25;2.10;;;;;;;4.39;89.84;99734.66;5096770;28;20047;-66
2022/01/09 08:14:43;;;;;;;9.68;2.30;;;;;;;4.52;89.34;99742.53;5095848;28;20051;-67
2022/01/09 08:17:09;;;;;;;11.20;2.70;;;;;;;4.49;90.09;99745.44;5095503;28;20352;-66
2022/01/09 08:19:35;;;;;;;10.05;2.10;;;;;;;4.52;88.93;99752.00;5096060;28;20024;-66
2022/01/09 08:22:01;;;;;;;11.32;2.22;;;;;;;4.58;87.95;99750.50;5096030;28;20032;-66
2022/01/09 08:24:26;;;;;;;6.85;1.63;;;;;;;4.60;89.60;99754.47;5096020;28;20032;-67
2022/01/09 08:26:51;;;;;;;7.88;1.67;;;;;;;4.60;88.15;99754.47;5096252;28;20514;-66
2022/01/09 08:29:17;;;;;;;9.05;1.77;;;;;;;4.59;87.82;99767.44;5095754;28;20028;-66
2022/01/09 08:31:43;;;;;;;6.25;1.70;;;;;;;4.57;89.50;99761.69;5095716;28;20024;-66
2022/01/09 08:34:09;;;;;;;4.50;1.30;;;;;;;4.59;89.54;99757.19;5095862;28;20468;-66
2022/01/09 08:36:35;;;;;;;8.57;1.55;;;;;;;4.61;89.48;99771.41;5095837;28;20066;-67
2022/01/09 08:39:01;;;;;;;7.82;1.83;;;;;;;4.72;88.57;99767.66;5095696;28;20522;-66
2022/01/09 08:41:26;;;;;;;7.63;1.70;;;;;;;4.80;89.53;99772.69;5095598;28;20429;-66
2022/01/09 08:43:51;;;;;;;6.57;1.42;;;;;;;4.80;89.61;99765.00;5095693;28;20078;-66
2022/01/09 08:46:17;;;;;;;7.13;1.60;;;;;;;4.82;88.90;99780.19;5095512;28;20064;-66
2022/01/09 08:48:42;;;;;;;9.98;1.95;;;;;;;4.83;88.93;99789.47;5095424;28;20020;-68
2022/01/09 08:51:07;;;;;;;7.22;1.90;;;;;;;4.77;89.79;99787.59;5095364;28;20030;-67
2022/01/09 08:53:35;;;;;;;9.05;1.80;;;;;;;4.85;89.86;99795.22;5095228;28;20016;-65
2022/01/09 08:56:03;;;;;;;6.55;1.67;;;;;;;4.93;89.35;99800.25;5076891;28;20044;-65
2022/01/09 08:58:29;;;;;;;7.70;1.70;;;;;;;4.77;89.21;99774.81;5095127;28;20035;-66
2022/01/09 09:00:54;;;;;;;9.93;2.45;;;;;;;4.97;88.83;99784.38;5095129;28;20081;-66
2022/01/09 09:03:19;;;;;;;8.95;2.10;;;;;;;5.32;89.07;99806.91;5095087;28;20064;-66
2022/01/09 09:05:45;;;;;;;10.38;2.70;;;;;;;5.49;87.42;99810.09;5094968;28;20016;-66
2022/01/09 09:08:10;;;;;;;14.90;3.20;;;;;;;5.58;87.24;99809.03;5076225;28;20031;-66
2022/01/09 09:10:35;;;;;;;10.40;2.30;;;;;;;5.42;86.80;99813.38;5092850;28;20027;-66
2022/01/09 09:13:01;;;;;;;12.15;2.53;;;;;;;5.53;86.68;99811.34;5092768;28;20475;-67
2022/01/09 09:15:26;;;;;;;15.98;2.30;;;;;;;5.68;86.21;99829.28;5074634;28;20487;-67
2022/01/09 09:17:52;;;;;;;10.65;2.30;;;;;;;5.80;86.12;99828.66;5092928;28;20470;-66
2022/01/09 09:20:18;;;;;;;17.73;2.42;;;;;;;5.91;86.33;99829.19;5092826;28;20020;-66
2022/01/09 09:22:43;;;;;;;10.77;2.30;;;;;;;5.96;85.70;99837.16;5074373;28;20028;-66
2022/01/09 09:25:09;;;;;;;13.05;2.58;;;;;;;6.06;85.89;99838.44;5092526;28;20019;-66
2022/01/09 09:27:34;;;;;;;13.90;2.45;;;;;;;5.97;86.53;99843.88;5074270;28;20016;-66
2022/01/09 09:30:02;;;;;;;13.38;2.30;;;;;;;5.69;86.41;99852.16;5092514;28;20028;-67
2022/01/09 09:32:28;;;;;;;12.75;2.40;;;;;;;5.49;87.58;99846.78;5074406;28;20134;-67
2022/01/09 09:34:53;;;;;;;11.60;2.20;;;;;;;5.44;88.67;99851.66;5092469;28;20032;-66
2022/01/09 09:37:20;;;;;;;15.30;2.60;;;;;;;5.40;87.59;99856.31;5074602;28;20020;-67
2022/01/09 09:39:46;;;;;;;14.68;3.00;;;;;;;5.74;88.11;99862.69;5093758;28;20031;-67
2022/01/09 09:42:11;;;;;;;10.75;2.72;;;;;;;5.75;87.23;99866.03;5094807;28;20036;-66
2022/01/09 09:44:37;;;;;;;13.40;2.70;;;;;;;5.55;86.92;99868.34;5094466;28;20043;-66
2022/01/09 09:47:03;;;;;;;11.73;2.17;;;;;;;5.48;87.87;99862.34;5076140;28;20043;-68
2022/01/09 09:49:29;;;;;;;12.50;2.30;;;;;;;5.30;87.52;99867.81;5076273;28;20031;-67
2022/01/09 09:51:54;;;;;;;10.55;2.20;;;;;;;5.36;87.70;99867.09;5076015;28;20036;-66
2022/01/09 09:54:19;;;;;;;11.02;2.13;;;;;;;5.32;87.19;99873.53;5094113;28;20493;-67
2022/01/09 09:56:44;;;;;;;10.90;2.30;;;;;;;5.35;87.61;99878.31;5093871;28;20054;-68
2022/01/09 09:59:10;;;;;;;13.77;2.30;;;;;;;5.54;85.89;99866.75;5075479;28;20036;-67
2022/01/09 10:01:36;;;;;;;14.30;2.45;;;;;;;5.78;86.61;99875.94;5094110;28;20055;-66
2022/01/09 10:04:07;;;;;;;10.23;2.17;;;;;;;6.29;83.96;99884.50;5094499;28;20395;-65
2022/01/09 10:06:36;;;;;;;12.25;2.30;;;;;;;6.66;83.21;99887.06;5093305;28;20042;-66
2022/01/09 10:09:20;;;;;;;10.55;2.08;;;;;;;6.14;85.06;99888.88;5074617;28;20382;-66
2022/01/09 10:11:48;;;;;;;15.13;2.40;;;;;;;6.02;85.51;99896.22;5094355;28;20032;-66
2022/01/09 10:14:19;;;;;;;12.35;2.35;;;;;;;6.09;85.67;99891.16;5075579;28;20093;-66
2022/01/09 10:17:22;;;;;;;11.85;2.47;;;;;;;6.37;84.56;99890.50;5093711;28;20031;-66
2022/01/09 10:19:56;;;;;;;7.72;1.88;;;;;;;6.60;84.02;99891.13;5092167;28;20522;-66
2022/01/09 10:22:36;;;;;;;10.27;2.33;;;;;;;6.95;84.54;99889.47;5092395;28;20118;-66
2022/01/09 10:25:22;;;;;;;17.98;3.03;;;;;;;9.85;74.63;99909.56;5073722;28;20024;-66
2022/01/09 10:27:50;;;;;;;12.38;2.85;;;;;;;11.86;64.46;99905.44;5075634;28;20019;-68
2022/01/09 10:30:16;;;;;;;15.63;2.75;;;;;;;11.44;65.14;99878.56;5074047;28;20127;-68
2022/01/09 10:32:41;;;;;;;7.93;2.58;;;;;;;13.32;58.55;99905.19;5092658;28;20086;-67
2022/01/09 10:35:09;;;;;;;12.00;2.30;;;;;;;9.16;71.61;99910.06;5092681;28;20012;-67
2022/01/09 10:37:36;;;;;;;10.80;2.60;;;;;;;7.99;76.95;99911.13;5091677;28;20493;-67
2022/01/09 10:40:08;;;;;;;9.90;2.00;;;;;;;8.20;74.58;99915.38;5092396;28;20027;-67
2022/01/09 10:42:34;;;;;;;10.75;2.28;;;;;;;12.88;61.43;99920.25;5073439;28;20542;-68
2022/01/09 10:45:23;;;;;;;8.48;2.25;;;;;;;8.94;73.98;99925.69;5073213;28;20031;-67
2022/01/09 10:47:55;;;;;;;10.70;2.38;;;;;;;7.58;76.62;99922.97;5091434;28;20041;-67
2022/01/09 10:50:30;;;;;;;14.75;2.45;;;;;;;7.42;79.60;99930.97;5091306;28;20030;-66
2022/01/09 10:53:21;;;;;;;12.48;2.88;;;;;;;8.16;77.12;99927.84;5091183;28;20535;-66
2022/01/09 10:56:10;;;;;;;12.93;2.20;;;;;;;7.85;76.01;99889.69;5077833;28;20051;-69
2022/01/09 10:58:49;;;;;;;11.88;2.15;;;;;;;8.18;74.17;99894.19;5096220;28;20020;-69
2022/01/09 11:01:23;;;;;;;15.57;2.67;;;;;;;7.88;76.00;99894.44;5097240;28;20052;-69
2022/01/09 11:03:55;;;;;;;16.15;2.20;;;;;;;7.91;76.18;99915.47;5097124;28;20051;-70
2022/01/09 11:06:23;;;;;;;14.00;2.40;;;;;;;8.01;77.08;99915.09;5078574;28;20032;-67
2022/01/09 11:08:50;;;;;;;12.20;2.25;;;;;;;8.05;76.94;99941.25;5093465;28;20016;-67
2022/01/09 11:11:25;;;;;;;12.77;2.55;;;;;;;8.88;73.11;99947.09;5093238;28;20034;-66
2022/01/09 11:13:53;;;;;;;10.73;2.13;;;;;;;9.07;73.04;99965.38;5074817;28;20070;-65
2022/01/09 11:16:37;;;;;;;13.00;2.53;;;;;;;8.78;73.03;99946.69;5074962;28;20426;-67
2022/01/09 11:19:16;;;;;;;16.42;3.05;;;;;;;9.06;73.35;99950.88;5092908;28;20023;-67
2022/01/09 11:21:49;;;;;;;13.38;2.47;;;;;;;8.94;74.07;99950.66;5075092;28;20024;-66
2022/01/09 11:24:38;;;;;;;14.35;2.67;;;;;;;8.74;72.61;99954.00;5093437;28;20024;-67
2022/01/09 11:27:46;;;;;;;14.13;2.88;;;;;;;8.73;76.19;99955.00;5093174;28;20024;-66
2022/01/09 11:30:42;;;;;;;10.38;2.60;;;;;;;8.48;74.96;99962.44;5084961;28;20118;-66
2022/01/09 11:33:37;;;;;;;16.00;2.35;;;;;;;8.13;76.41;99974.53;5078457;28;20024;-66